createdAt,value
2018-11-12T00:01:37.262Z,12.36
2018-11-12T00:02:36.685Z,12.37
2018-11-12T00:04:42.270Z,12.33
2018-11-12T00:07:23.317Z,12.31
2018-11-12T00:08:25.550Z,12.23
2018-11-12T00:10:34.835Z,12.21
2018-11-12T00:11:35.370Z,12.25
2018-11-12T00:13:36.845Z,12.30
2018-11-12T00:14:39.015Z,12.22
2018-11-12T00:16:46.830Z,12.25
2018-11-12T00:17:34.131Z,12.26
2018-11-12T00:19:41.920Z,12.21
2018-11-12T00:20:39.953Z,12.25
2018-11-12T00:21:40.799Z,12.33
2018-11-12T00:22:41.397Z,12.26
2018-11-12T00:23:41.383Z,12.29
2018-11-12T00:24:39.409Z,12.34
2018-11-12T00:25:39.437Z,12.22
2018-11-12T00:44:34.538Z,12.25
2018-11-12T00:45:32.556Z,12.30
2018-11-12T00:47:38.612Z,12.25
2018-11-12T00:48:38.523Z,12.30
2018-11-12T00:49:37.040Z,12.21
2018-11-12T00:50:37.901Z,12.29
2018-11-12T00:51:37.289Z,12.26
2018-11-12T00:52:37.427Z,12.25
2018-11-12T00:53:36.705Z,12.23
2018-11-12T00:54:36.454Z,12.23
2018-11-12T00:55:36.428Z,12.29
2018-11-12T00:56:36.424Z,12.23
2018-11-12T00:57:36.412Z,12.21
2018-11-12T00:58:36.436Z,12.26
2018-11-12T00:59:36.492Z,12.23
2018-11-12T01:00:36.447Z,12.29
2018-11-12T01:01:36.473Z,12.29
2018-11-12T01:02:36.392Z,12.36
2018-11-12T01:03:36.383Z,12.26
2018-11-12T01:04:36.463Z,12.22
2018-11-12T01:05:36.389Z,12.22
2018-11-12T01:06:36.402Z,12.29
2018-11-12T01:07:36.515Z,12.30
2018-11-12T01:08:36.405Z,12.25
2018-11-12T01:09:36.460Z,12.22
2018-11-12T01:10:36.383Z,12.25
2018-11-12T01:11:36.436Z,12.25
2018-11-12T01:12:36.469Z,12.23
2018-11-12T01:13:36.426Z,12.26
2018-11-12T01:14:36.399Z,12.25
2018-11-12T01:15:36.394Z,12.25
2018-11-12T01:16:36.488Z,12.29
2018-11-12T01:17:36.423Z,12.33
2018-11-12T01:18:36.468Z,12.37
2018-11-12T01:19:36.391Z,12.23
2018-11-12T01:20:36.416Z,12.33
2018-11-12T01:21:36.404Z,12.34
2018-11-12T01:22:36.406Z,12.34
2018-11-12T01:24:22.833Z,12.29
2018-11-12T01:25:22.841Z,12.30
2018-11-12T01:27:31.823Z,12.19
2018-11-12T01:28:29.785Z,12.19
2018-11-12T01:30:41.225Z,12.25
2018-11-12T01:33:46.237Z,12.26
2018-11-12T01:34:45.097Z,12.29
2018-11-12T01:36:49.811Z,12.29
2018-11-12T01:37:49.394Z,12.25
2018-11-12T01:39:44.099Z,12.22
2018-11-12T01:40:42.065Z,12.29
2018-11-12T01:41:42.962Z,12.22
2018-11-12T01:42:42.454Z,12.25
2018-11-12T01:43:42.743Z,12.26
2018-11-12T01:44:43.429Z,12.21
2018-11-12T01:45:42.144Z,12.26
2018-11-12T01:46:42.061Z,12.25
2018-11-12T01:47:42.088Z,12.25
2018-11-12T01:48:42.013Z,12.36
2018-11-12T01:49:42.042Z,12.29
2018-11-12T01:50:42.032Z,12.34
2018-11-12T01:51:42.010Z,12.23
2018-11-12T01:52:42.018Z,12.29
2018-11-12T01:53:42.057Z,12.25
2018-11-12T01:54:42.072Z,12.31
2018-11-12T01:55:42.017Z,12.30
2018-11-12T01:56:42.105Z,12.18
2018-11-12T01:57:42.039Z,12.33
2018-11-12T01:58:42.008Z,12.22
2018-11-12T01:59:42.021Z,12.21
2018-11-12T02:00:42.036Z,12.21
2018-11-12T02:01:42.084Z,12.22
2018-11-12T02:02:42.092Z,12.29
2018-11-12T02:03:42.090Z,12.23
2018-11-12T02:04:42.041Z,12.22
2018-11-12T02:05:42.104Z,12.25
2018-11-12T02:06:42.049Z,12.26
2018-11-12T02:07:42.080Z,12.25
2018-11-12T02:08:42.128Z,12.22
2018-11-12T02:09:42.062Z,12.30
2018-11-12T02:10:42.079Z,12.29
2018-11-12T02:11:42.073Z,12.23
2018-11-12T02:12:42.061Z,12.23
2018-11-12T02:13:42.095Z,12.26
2018-11-12T02:14:42.142Z,12.22
2018-11-12T02:15:42.068Z,12.22
2018-11-12T02:16:42.045Z,12.23
2018-11-12T02:17:42.015Z,12.30
2018-11-12T02:18:42.023Z,12.07
2018-11-12T02:19:42.019Z,12.21
2018-11-12T02:20:42.042Z,12.18
2018-11-12T02:21:42.053Z,12.22
2018-11-12T02:22:42.103Z,12.08
2018-11-12T02:23:42.053Z,12.31
2018-11-12T02:24:42.025Z,12.30
2018-11-12T02:25:42.049Z,12.23
2018-11-12T02:26:42.056Z,12.25
2018-11-12T02:27:42.054Z,12.22
2018-11-12T02:28:42.079Z,12.13
2018-11-12T02:29:42.064Z,12.18
2018-11-12T02:30:42.069Z,12.22
2018-11-12T02:31:42.101Z,12.30
2018-11-12T02:32:42.067Z,12.26
2018-11-12T02:33:42.025Z,12.29
2018-11-12T02:34:42.028Z,12.18
2018-11-12T02:35:42.018Z,12.23
2018-11-12T02:36:42.085Z,12.31
2018-11-12T02:37:42.032Z,12.26
2018-11-12T02:38:42.068Z,12.23
2018-11-12T02:39:42.053Z,12.29
2018-11-12T02:40:42.094Z,12.22
2018-11-12T02:41:42.094Z,12.23
2018-11-12T02:42:42.093Z,12.25
2018-11-12T02:43:42.047Z,12.30
2018-11-12T15:52:49.393Z,16.66
2018-11-12T15:53:49.429Z,16.77
2018-11-12T15:55:01.532Z,16.95
2018-11-12T15:59:02.905Z,14.39
2018-11-12T16:02:15.674Z,13.73
2018-11-12T16:02:55.612Z,13.72
2018-11-12T16:08:39.721Z,13.10
2018-11-12T16:09:38.530Z,13.12
2018-11-12T16:11:48.441Z,13.10
2018-11-12T16:12:37.267Z,13.01
2018-11-12T16:13:38.482Z,13.03
2018-11-12T16:14:37.987Z,13.09
2018-11-12T16:15:36.960Z,13.09
2018-11-12T16:16:36.927Z,13.09
2018-11-12T16:17:36.954Z,13.09
2018-11-12T16:18:36.993Z,13.12
2018-11-12T16:19:36.982Z,13.01
2018-11-12T16:20:36.926Z,12.99
2018-11-12T16:21:36.926Z,13.06
2018-11-12T16:22:37.348Z,12.98
2018-11-12T16:23:36.953Z,12.96
2018-11-12T16:24:37.072Z,13.01
2018-11-12T16:25:37.091Z,13.01
2018-11-12T16:26:37.011Z,12.99
2018-11-12T16:27:36.932Z,12.91
2018-11-12T16:28:36.961Z,12.98
2018-11-12T16:29:36.954Z,13.06
2018-11-12T16:30:36.932Z,13.06
2018-11-12T16:31:36.986Z,12.94
2018-11-12T16:32:37.009Z,12.95
2018-11-12T16:33:37.010Z,12.92
2018-11-12T16:34:36.995Z,12.92
2018-11-12T16:35:36.947Z,12.96
2018-11-12T16:36:36.969Z,12.92
2018-11-12T16:37:37.004Z,12.92
2018-11-12T16:38:36.959Z,12.89
2018-11-12T16:39:37.003Z,12.94
2018-11-12T16:40:36.997Z,12.88
2018-11-12T16:41:36.964Z,12.88
2018-11-12T16:42:36.935Z,12.96
2018-11-12T16:43:36.981Z,12.96
2018-11-12T16:44:36.991Z,12.96
2018-11-12T16:45:36.982Z,13.03
2018-11-12T16:46:36.941Z,12.98
2018-11-12T16:47:37.009Z,13.12
2018-11-12T16:48:36.988Z,13.10
2018-11-12T16:49:37.048Z,13.07
2018-11-12T16:50:36.957Z,13.06
2018-11-12T16:51:36.940Z,13.10
2018-11-12T16:52:36.959Z,12.98
2018-11-12T16:53:36.976Z,12.96
2018-11-12T16:54:36.953Z,12.98
2018-11-12T16:55:37.013Z,12.91
2018-11-12T16:56:37.042Z,12.91
2018-11-12T16:57:36.942Z,12.88
2018-11-12T16:58:36.947Z,12.96
2018-11-12T16:59:36.945Z,12.91
2018-11-12T17:00:36.981Z,12.91
2018-11-12T17:01:37.712Z,12.77
2018-11-12T17:02:37.332Z,12.67
2018-11-12T17:03:36.979Z,12.80
2018-11-12T17:04:37.512Z,12.81
2018-11-12T17:05:36.972Z,12.74
2018-11-12T17:06:36.992Z,12.70
2018-11-12T17:07:36.977Z,12.76
2018-11-12T17:08:37.015Z,12.70
2018-11-12T17:09:36.989Z,12.69
2018-11-12T17:10:36.987Z,12.56
2018-11-12T17:11:37.029Z,12.71
2018-11-12T17:12:37.007Z,12.59
2018-11-12T17:13:37.048Z,12.66
2018-11-12T17:14:37.020Z,12.56
2018-11-12T17:15:37.004Z,12.61
2018-11-12T17:16:37.107Z,12.62
2018-11-12T17:17:37.287Z,12.55
2018-11-12T17:18:37.117Z,12.51
2018-11-12T17:19:37.044Z,12.52
2018-11-12T17:20:37.103Z,12.70
2018-11-12T17:21:37.063Z,12.67
2018-11-12T17:22:37.083Z,12.70
2018-11-12T17:23:37.086Z,12.74
2018-11-12T17:24:37.241Z,12.70
2018-11-12T17:25:37.278Z,12.55
2018-11-12T17:26:37.063Z,12.61
2018-11-12T17:27:37.065Z,12.67
2018-11-12T17:28:36.946Z,12.67
2018-11-12T17:29:36.993Z,12.69
2018-11-12T17:30:37.188Z,12.71
2018-11-12T17:31:37.026Z,12.70
2018-11-12T17:32:37.055Z,12.56
2018-11-12T17:33:36.934Z,12.62
2018-11-12T17:34:36.939Z,12.70
2018-11-12T17:35:36.953Z,12.73
2018-11-12T17:36:37.025Z,12.62
2018-11-12T17:37:36.941Z,12.79
2018-11-12T17:38:36.949Z,12.81
2018-11-12T17:39:36.964Z,12.89
2018-11-12T17:40:36.970Z,12.89
2018-11-12T17:41:36.938Z,12.81
2018-11-12T17:42:36.966Z,12.69
2018-11-12T17:43:36.981Z,12.58
2018-11-12T17:44:36.962Z,12.74
2018-11-12T17:45:36.939Z,12.69
2018-11-12T17:46:36.935Z,12.73
2018-11-12T17:47:37.022Z,12.76
2018-11-12T17:48:36.936Z,12.85
2018-11-12T17:49:37.029Z,12.67
2018-11-12T17:50:36.934Z,12.67
2018-11-12T17:51:51.209Z,12.73
2018-11-12T17:53:47.193Z,12.67
2018-11-12T17:54:45.437Z,12.59
2018-11-12T17:56:42.418Z,12.59
2018-11-12T17:57:41.543Z,12.59
2018-11-12T17:58:42.673Z,12.55
2018-11-12T17:59:40.781Z,12.56
2018-11-12T18:00:47.353Z,12.49
2018-11-12T18:01:42.106Z,12.55
2018-11-12T18:02:40.674Z,12.54
2018-11-12T18:03:40.662Z,12.66
2018-11-12T18:04:40.524Z,12.54
2018-11-12T18:05:40.621Z,12.55
2018-11-12T18:06:40.624Z,12.46
2018-11-12T18:07:40.785Z,12.37
2018-11-12T18:08:40.577Z,12.49
2018-11-12T18:09:40.586Z,12.52
2018-11-12T18:10:40.521Z,12.40
2018-11-12T18:13:24.608Z,12.51
2018-11-12T18:14:24.541Z,12.49
2018-11-12T18:15:31.760Z,12.44
2018-11-12T18:17:31.688Z,12.49
2018-11-12T18:20:27.075Z,12.54
2018-11-12T18:21:28.573Z,12.56
2018-11-12T18:22:28.530Z,12.54
2018-11-12T18:23:28.396Z,12.49
2018-11-12T18:27:40.994Z,12.40
2018-11-12T18:30:20.600Z,12.19
2018-11-12T18:33:00.197Z,12.25
2018-11-12T18:36:02.325Z,12.22
2018-11-12T18:38:51.340Z,12.15
2018-11-12T18:41:20.892Z,12.26
2018-11-12T18:42:19.825Z,12.15
2018-11-12T18:46:01.573Z,12.26
2018-11-12T18:48:42.532Z,12.25
2018-11-12T18:51:25.151Z,12.29
2018-11-12T18:52:15.434Z,12.37
2018-11-12T18:53:28.335Z,12.26
2018-11-12T18:55:43.896Z,12.31
2018-11-12T18:58:24.032Z,12.18
2018-11-12T19:01:17.481Z,12.31
2018-11-12T19:02:17.898Z,12.22
2018-11-12T19:08:02.380Z,12.29
2018-11-12T19:18:11.503Z,12.23
2018-11-12T19:21:14.191Z,12.13
2018-11-12T19:25:10.138Z,12.34
2018-11-12T19:25:15.577Z,12.25
2018-11-12T19:26:06.758Z,12.26
2018-11-12T19:30:35.917Z,12.30
2018-11-12T19:31:36.818Z,12.15
2018-11-12T19:35:38.034Z,12.16
2018-11-12T19:39:03.020Z,12.13
2018-11-12T19:40:08.616Z,12.05
2018-11-12T19:41:15.918Z,12.07
2018-11-12T19:42:03.133Z,11.93
2018-11-12T19:43:21.071Z,11.97
2018-11-12T19:44:05.757Z,11.93
2018-11-12T19:45:05.213Z,11.94
2018-11-12T19:46:03.065Z,11.96
2018-11-12T19:47:02.791Z,11.84
2018-11-12T19:48:02.979Z,11.81
2018-11-12T19:49:15.397Z,11.82
2018-11-12T19:50:06.601Z,11.78
2018-11-12T19:51:02.762Z,11.87
2018-11-12T19:52:02.965Z,11.72
2018-11-12T19:59:52.833Z,11.82
2018-11-12T20:00:46.419Z,11.72
2018-11-12T20:01:35.151Z,11.78
2018-11-12T22:03:01.087Z,11.75
2018-11-12T22:03:58.862Z,11.60
2018-11-12T22:05:55.379Z,11.63
2018-11-12T22:06:54.836Z,11.60
2018-11-12T22:07:53.086Z,11.64
2018-11-12T22:08:53.144Z,11.60
2018-11-12T22:09:54.845Z,11.67
2018-11-12T22:10:53.669Z,11.59
2018-11-12T22:11:52.765Z,11.64
2018-11-12T22:12:52.708Z,11.63
2018-11-12T22:13:52.692Z,11.57
2018-11-12T22:14:52.699Z,11.60
2018-11-12T22:15:52.704Z,11.59
2018-11-12T22:16:52.712Z,11.53
2018-11-12T22:18:03.131Z,11.53
2018-11-12T22:20:05.531Z,11.67
2018-11-12T22:21:04.210Z,11.63
2018-11-12T22:23:11.913Z,11.60
2018-11-12T22:24:22.020Z,11.57
2018-11-12T22:26:08.961Z,11.60
2018-11-12T22:29:30.399Z,11.53
2018-11-12T22:30:29.803Z,11.57
2018-11-12T22:33:05.445Z,11.49
2018-11-12T22:34:16.422Z,11.51
2018-11-12T22:38:03.448Z,11.57
2018-11-12T22:39:01.253Z,11.51
2018-11-12T22:40:58.948Z,11.62
2018-11-12T22:43:46.246Z,11.54
2018-11-12T22:44:35.045Z,11.57
2018-11-12T22:47:21.424Z,11.57
2018-11-12T22:48:24.349Z,11.51
2018-11-12T22:50:18.540Z,11.53
2018-11-12T22:51:30.583Z,11.60
2018-11-12T22:53:29.512Z,11.59
2018-11-12T22:54:41.678Z,11.54
2018-11-12T22:56:26.930Z,11.56
2018-11-12T22:57:27.129Z,11.57
2018-11-12T22:59:33.907Z,11.54
2018-11-12T23:00:34.089Z,11.51
2018-11-12T23:01:34.034Z,11.62
2018-11-12T23:02:45.543Z,11.56
2018-11-12T23:04:41.445Z,11.56
2018-11-12T23:05:41.270Z,11.60
2018-11-12T23:06:41.520Z,11.64
2018-11-12T23:07:40.937Z,11.54
2018-11-12T23:08:40.808Z,11.59
2018-11-12T23:11:21.435Z,11.66
2018-11-12T23:14:14.390Z,11.63
2018-11-12T23:15:09.225Z,11.60
2018-11-12T23:17:03.303Z,11.54
2018-11-12T23:18:14.606Z,11.51
2018-11-12T23:20:11.264Z,11.56
2018-11-12T23:21:23.370Z,11.57
2018-11-12T23:23:31.643Z,11.49
2018-11-12T23:24:18.871Z,11.44
2018-11-12T23:25:32.288Z,11.51
2018-11-12T23:27:14.794Z,11.41
2018-11-12T23:28:26.239Z,11.39
2018-11-12T23:30:30.067Z,11.42
2018-11-12T23:31:30.129Z,11.48
2018-11-12T23:33:39.808Z,11.51
2018-11-12T23:34:38.413Z,11.51
2018-11-12T23:36:22.673Z,11.42
2018-11-12T23:37:23.336Z,11.53
2018-11-12T23:38:34.017Z,11.48
2018-11-12T23:40:29.808Z,11.49
2018-11-12T23:41:41.635Z,11.44
2018-11-12T23:43:37.318Z,11.46
2018-11-12T23:44:49.317Z,11.38
2018-11-12T23:46:30.392Z,11.56
2018-11-12T23:47:30.412Z,11.53
2018-11-12T23:49:37.039Z,11.57
2018-11-12T23:50:47.246Z,11.60
2018-11-12T23:52:52.500Z,11.63
2018-11-12T23:53:43.644Z,11.66
2018-11-12T23:55:59.086Z,11.62
2018-11-12T23:57:01.609Z,11.66
